createdAt,value
2019-03-23T00:00:19.767Z,8.80
2019-03-23T00:02:52.974Z,8.77
2019-03-23T00:05:24.938Z,8.76
2019-03-23T00:07:56.835Z,8.75
2019-03-23T00:10:28.838Z,8.85
2019-03-23T00:13:00.948Z,8.86
2019-03-23T00:15:32.811Z,9.11
2019-03-23T00:18:04.856Z,9.17
2019-03-23T00:20:36.807Z,9.23
2019-03-23T00:23:08.779Z,9.33
2019-03-23T00:25:40.663Z,9.35
2019-03-23T00:28:12.564Z,9.31
2019-03-23T00:30:44.458Z,9.11
2019-03-23T00:33:16.412Z,8.89
2019-03-23T00:35:48.380Z,8.72
2019-03-23T00:38:20.399Z,8.56
2019-03-23T00:40:52.254Z,8.36
2019-03-23T00:43:24.160Z,8.38
2019-03-23T00:45:56.219Z,8.33
2019-03-23T00:48:28.464Z,8.20
2019-03-23T00:51:00.363Z,8.18
2019-03-23T00:53:32.291Z,8.27
2019-03-23T00:56:04.189Z,8.29
2019-03-23T00:58:36.087Z,8.42
2019-03-23T01:01:07.948Z,8.48
2019-03-23T01:03:39.950Z,8.53
2019-03-23T01:06:11.863Z,8.60
2019-03-23T01:08:43.782Z,8.64
2019-03-23T01:11:15.657Z,8.68
2019-03-23T01:13:47.606Z,8.50
2019-03-23T01:16:19.464Z,8.41
2019-03-23T01:18:51.528Z,8.31
2019-03-23T01:21:23.393Z,8.14
2019-03-23T01:23:55.313Z,8.07
2019-03-23T01:26:27.171Z,8.10
2019-03-23T01:28:59.029Z,8.13
2019-03-23T01:31:30.971Z,8.17
2019-03-23T01:34:02.831Z,8.12
2019-03-23T01:36:34.817Z,7.97
2019-03-23T01:39:08.440Z,8.01
2019-03-23T01:41:40.326Z,7.98
2019-03-23T01:44:12.224Z,7.90
2019-03-23T01:46:44.079Z,7.90
2019-03-23T01:49:15.977Z,7.99
2019-03-23T01:51:47.872Z,8.01
2019-03-23T01:54:19.739Z,8.06
2019-03-23T01:56:51.646Z,8.11
2019-03-23T01:59:23.497Z,8.12
2019-03-23T02:01:55.400Z,8.10
2019-03-23T02:04:27.261Z,7.73
2019-03-23T02:06:59.266Z,7.60
2019-03-23T02:09:31.127Z,7.44
2019-03-23T02:12:03.523Z,7.39
2019-03-23T02:14:35.378Z,7.34
2019-03-23T02:17:07.281Z,7.23
2019-03-23T02:19:39.199Z,7.24
2019-03-23T02:22:11.092Z,7.30
2019-03-23T02:24:42.998Z,7.24
2019-03-23T02:27:14.856Z,7.13
2019-03-23T02:29:46.777Z,7.07
2019-03-23T02:32:18.747Z,7.17
2019-03-23T02:34:50.672Z,7.14
2019-03-23T02:37:28.034Z,7.23
2019-03-23T02:39:56.628Z,7.13
2019-03-23T02:42:28.725Z,7.07
2019-03-23T02:45:01.957Z,7.11
2019-03-23T02:47:33.851Z,7.16
2019-03-23T02:50:06.524Z,7.19
2019-03-23T02:52:38.695Z,7.15
2019-03-23T02:55:12.396Z,7.22
2019-03-23T02:57:44.825Z,7.44
2019-03-23T03:00:17.507Z,7.17
2019-03-23T03:02:49.500Z,7.06
2019-03-23T03:05:21.387Z,7.01
2019-03-23T03:07:53.238Z,6.99
2019-03-23T03:10:41.171Z,7.08
2019-03-23T03:13:13.045Z,6.99
2019-03-23T03:15:44.925Z,7.12
2019-03-23T03:18:16.772Z,7.02
2019-03-23T03:20:48.776Z,7.03
2019-03-23T03:23:20.745Z,7.12
2019-03-23T03:25:52.654Z,7.17
2019-03-23T03:28:24.527Z,7.23
2019-03-23T03:30:56.432Z,7.26
2019-03-23T03:33:29.502Z,7.23
2019-03-23T03:36:01.370Z,7.11
2019-03-23T03:38:33.258Z,6.82
2019-03-23T03:41:05.454Z,6.75
2019-03-23T03:43:37.320Z,6.76
2019-03-23T03:46:09.279Z,6.66
2019-03-23T03:48:41.200Z,6.55
2019-03-23T03:51:13.094Z,6.47
2019-03-23T03:53:44.988Z,6.46
2019-03-23T03:56:18.066Z,6.50
2019-03-23T03:58:51.273Z,6.53
2019-03-23T04:01:23.165Z,6.83
2019-03-23T04:03:55.602Z,6.72
2019-03-23T04:06:28.730Z,6.73
2019-03-23T04:09:00.637Z,6.96
2019-03-23T04:11:34.074Z,6.84
2019-03-23T04:14:07.116Z,6.66
2019-03-23T04:16:40.568Z,6.54
2019-03-23T04:19:12.482Z,6.59
2019-03-23T04:21:45.435Z,6.40
2019-03-23T04:24:17.350Z,6.35
2019-03-23T04:26:49.263Z,6.38
2019-03-23T04:29:22.270Z,6.43
2019-03-23T04:31:54.112Z,6.45
2019-03-23T04:34:27.033Z,6.29
2019-03-23T04:36:58.920Z,6.27
2019-03-23T04:39:30.815Z,6.28
2019-03-23T04:42:02.718Z,6.45
2019-03-23T04:44:34.617Z,6.37
2019-03-23T04:47:06.478Z,6.32
2019-03-23T04:49:38.368Z,6.25
2019-03-23T04:52:10.265Z,6.19
2019-03-23T04:54:42.155Z,6.14
2019-03-23T04:57:14.049Z,6.16
2019-03-23T04:59:46.540Z,6.26
2019-03-23T05:02:18.491Z,6.35
2019-03-23T05:04:50.405Z,6.42
2019-03-23T05:07:22.786Z,6.44
2019-03-23T05:09:57.608Z,6.57
2019-03-23T05:12:29.470Z,6.56
2019-03-23T05:15:02.358Z,6.48
2019-03-23T05:17:34.264Z,6.34
2019-03-23T05:20:07.104Z,6.31
2019-03-23T05:22:39.309Z,6.26
2019-03-23T05:25:23.015Z,6.22
2019-03-23T05:27:55.274Z,6.16
2019-03-23T05:30:27.220Z,6.03
2019-03-23T05:32:59.131Z,6.10
2019-03-23T05:35:31.026Z,6.11
2019-03-23T05:38:03.369Z,6.11
2019-03-23T05:40:35.230Z,6.06
2019-03-23T05:43:07.143Z,6.04
2019-03-23T05:45:39.004Z,5.95
2019-03-23T05:48:10.910Z,6.08
2019-03-23T05:50:42.771Z,6.12
2019-03-23T05:53:14.674Z,6.28
2019-03-23T05:55:46.530Z,6.21
2019-03-23T05:58:18.525Z,6.29
2019-03-23T06:00:50.397Z,6.14
2019-03-23T06:03:22.277Z,6.19
2019-03-23T06:05:54.241Z,6.09
2019-03-23T06:08:26.136Z,5.98
2019-03-23T06:10:58.009Z,5.93
2019-03-23T06:13:29.923Z,5.91
2019-03-23T06:16:01.787Z,5.80
2019-03-23T06:18:33.721Z,5.74
2019-03-23T06:21:05.580Z,5.65
2019-03-23T06:23:37.609Z,5.65
2019-03-23T06:26:09.510Z,5.56
2019-03-23T06:28:41.391Z,5.54
2019-03-23T06:31:13.291Z,5.47
2019-03-23T06:33:45.191Z,5.51
2019-03-23T06:36:17.089Z,5.55
2019-03-23T06:38:49.000Z,5.61
2019-03-23T06:41:20.870Z,5.63
2019-03-23T06:43:54.497Z,5.64
2019-03-23T06:46:26.356Z,5.64
2019-03-23T06:48:58.265Z,5.66
2019-03-23T06:51:30.142Z,5.75
2019-03-23T06:54:02.273Z,5.80
2019-03-23T06:56:34.130Z,5.91
2019-03-23T06:59:06.170Z,5.99
2019-03-23T07:01:38.092Z,6.01
2019-03-23T07:04:09.986Z,6.00
2019-03-23T07:06:41.849Z,6.11
2019-03-23T07:09:16.440Z,6.18
2019-03-23T07:11:47.319Z,6.24
2019-03-23T07:14:19.283Z,6.28
2019-03-23T07:16:51.193Z,6.41
2019-03-23T07:19:23.487Z,6.45
2019-03-23T07:21:55.535Z,6.49
2019-03-23T07:24:27.522Z,6.62
2019-03-23T07:26:59.405Z,6.78
2019-03-23T07:29:31.262Z,6.97
2019-03-23T07:32:05.934Z,7.07
2019-03-23T07:34:36.755Z,7.12
2019-03-23T07:37:08.648Z,7.21
2019-03-23T07:39:40.509Z,7.40
2019-03-23T07:42:12.419Z,7.64
2019-03-23T07:44:44.284Z,7.80
2019-03-23T07:47:16.178Z,7.87
2019-03-23T07:49:48.046Z,8.06
2019-03-23T07:52:19.951Z,8.29
2019-03-23T07:54:51.855Z,8.47
2019-03-23T07:57:23.719Z,8.75
2019-03-23T07:59:55.637Z,8.98
2019-03-23T08:02:27.543Z,9.95
2019-03-23T08:04:59.845Z,12.25
2019-03-23T08:07:31.747Z,14.59
2019-03-23T08:10:03.596Z,16.42
2019-03-23T08:12:35.528Z,18.88
2019-03-23T08:15:08.594Z,20.49
2019-03-23T08:17:40.614Z,22.55
2019-03-23T08:20:12.592Z,23.75
2019-03-23T08:22:44.909Z,26.33
2019-03-23T08:25:16.811Z,27.34
2019-03-23T08:27:48.772Z,27.39
2019-03-23T08:30:20.682Z,26.90
2019-03-23T08:32:52.633Z,28.52
2019-03-23T08:35:24.565Z,29.83
2019-03-23T08:37:56.462Z,29.00
2019-03-23T08:40:28.372Z,27.98
2019-03-23T08:43:00.319Z,30.87
2019-03-23T08:45:32.209Z,28.23
2019-03-23T08:48:04.216Z,28.72
2019-03-23T08:50:36.639Z,27.70
2019-03-23T08:53:08.636Z,27.27
2019-03-23T08:55:40.533Z,26.50
2019-03-23T08:58:12.395Z,27.83
2019-03-23T09:00:44.290Z,30.17
2019-03-23T09:03:16.389Z,30.37
2019-03-23T09:05:48.264Z,31.51
2019-03-23T09:08:20.123Z,28.37
2019-03-23T09:10:52.015Z,30.41
2019-03-23T09:13:23.925Z,30.85
2019-03-23T09:15:55.938Z,28.62
2019-03-23T09:18:27.828Z,30.49
2019-03-23T09:20:59.700Z,31.02
2019-03-23T09:23:31.680Z,33.75
2019-03-23T09:26:03.698Z,35.05
2019-03-23T09:28:35.594Z,31.90
2019-03-23T09:31:07.461Z,32.80
2019-03-23T09:33:39.383Z,33.26
2019-03-23T09:36:11.248Z,33.83
2019-03-23T09:38:43.164Z,35.88
2019-03-23T09:41:15.192Z,34.60
2019-03-23T09:43:47.099Z,35.81
2019-03-23T09:46:19.066Z,34.79
2019-03-23T09:48:50.967Z,35.20
2019-03-23T09:51:22.830Z,35.56
2019-03-23T09:53:54.765Z,36.48
2019-03-23T09:56:26.678Z,35.92
2019-03-23T09:58:58.612Z,35.77
2019-03-23T10:01:30.553Z,35.02
2019-03-23T10:04:02.456Z,35.54
2019-03-23T10:06:34.360Z,36.58
2019-03-23T10:09:07.705Z,38.23
2019-03-23T10:11:39.598Z,34.27
2019-03-23T10:14:11.462Z,35.71
2019-03-23T10:16:43.379Z,36.92
2019-03-23T10:19:15.250Z,36.21
2019-03-23T10:21:47.345Z,36.07
2019-03-23T10:24:19.260Z,38.04
2019-03-23T10:26:52.355Z,34.34
2019-03-23T10:29:24.571Z,34.08
2019-03-23T10:31:56.494Z,34.35
2019-03-23T10:34:28.391Z,36.37
2019-03-23T10:37:00.289Z,37.15
2019-03-23T10:39:32.228Z,36.46
2019-03-23T10:42:04.115Z,36.38
2019-03-23T10:44:35.974Z,34.45
2019-03-23T10:47:07.963Z,35.25
2019-03-23T10:49:39.943Z,34.03
2019-03-23T10:52:11.991Z,34.71
2019-03-23T10:54:43.896Z,34.62
2019-03-23T10:57:15.846Z,34.14
2019-03-23T10:59:48.291Z,34.88
2019-03-23T11:02:20.238Z,32.75
2019-03-23T11:04:52.208Z,33.02
2019-03-23T11:07:24.260Z,35.02
2019-03-23T11:09:57.186Z,35.71
2019-03-23T11:12:29.079Z,33.77
2019-03-23T11:15:01.008Z,34.32
2019-03-23T11:17:34.025Z,35.92
2019-03-23T11:20:07.317Z,35.89
2019-03-23T11:22:39.484Z,32.94
2019-03-23T11:25:11.411Z,32.88
2019-03-23T11:27:43.951Z,33.30
2019-03-23T11:30:16.246Z,33.03
2019-03-23T11:32:48.708Z,34.85
2019-03-23T11:35:20.846Z,34.25
2019-03-23T11:37:52.956Z,34.90
2019-03-23T11:40:24.978Z,34.19
2019-03-23T11:42:56.907Z,35.45
2019-03-23T11:45:28.964Z,35.90
2019-03-23T11:48:01.217Z,35.21
2019-03-23T11:50:33.163Z,36.46
2019-03-23T11:53:05.020Z,38.42
2019-03-23T11:55:37.037Z,38.81
2019-03-23T11:58:21.177Z,36.71
2019-03-23T12:00:53.035Z,35.01
2019-03-23T12:03:25.015Z,32.13
2019-03-23T12:05:56.916Z,33.11
2019-03-23T12:08:28.759Z,31.58
2019-03-23T12:11:03.132Z,30.42
2019-03-23T12:13:34.529Z,31.34
2019-03-23T12:16:06.518Z,31.44
2019-03-23T12:18:39.093Z,31.33
2019-03-23T12:21:11.065Z,30.69
2019-03-23T12:23:44.459Z,29.47
2019-03-23T12:26:16.322Z,28.73
2019-03-23T12:28:48.307Z,29.22
2019-03-23T12:31:20.259Z,28.18
2019-03-23T12:33:52.635Z,28.56
2019-03-23T12:36:25.020Z,27.72
2019-03-23T12:38:56.963Z,26.63
2019-03-23T12:41:28.842Z,26.23
2019-03-23T12:44:04.810Z,25.69
2019-03-23T12:46:47.691Z,24.92
2019-03-23T12:49:13.734Z,24.84
2019-03-23T12:51:45.713Z,24.80
2019-03-23T12:54:18.126Z,24.61
2019-03-23T12:56:50.038Z,24.50
2019-03-23T12:59:21.885Z,24.43
2019-03-23T13:01:54.129Z,24.22
2019-03-23T13:04:26.025Z,23.90
2019-03-23T13:06:58.463Z,24.34
2019-03-23T13:09:30.378Z,24.49
2019-03-23T13:12:02.281Z,24.68
2019-03-23T13:14:34.138Z,24.58
2019-03-23T13:17:06.024Z,24.38
2019-03-23T13:19:37.986Z,24.56
2019-03-23T13:22:09.919Z,24.67
2019-03-23T13:24:42.596Z,24.44
2019-03-23T13:27:14.516Z,24.60
2019-03-23T13:29:48.931Z,24.68
2019-03-23T13:32:20.866Z,24.88
2019-03-23T13:34:52.846Z,24.29
2019-03-23T13:37:24.838Z,24.34
2019-03-23T13:39:56.845Z,24.34
2019-03-23T13:42:28.704Z,24.58
2019-03-23T13:45:01.157Z,24.47
2019-03-23T13:47:33.278Z,24.65
2019-03-23T13:50:05.469Z,24.50
2019-03-23T13:52:37.475Z,24.42
2019-03-23T13:55:24.446Z,24.53
2019-03-23T13:57:58.376Z,24.67
2019-03-23T14:00:30.328Z,24.63
2019-03-23T14:03:02.185Z,24.70
2019-03-23T14:05:34.094Z,24.47
2019-03-23T14:08:06.221Z,24.36
2019-03-23T14:10:38.096Z,24.53
2019-03-23T14:13:10.038Z,24.33
2019-03-23T14:15:41.910Z,24.53
2019-03-23T14:18:13.828Z,24.26
2019-03-23T14:20:47.395Z,24.50
2019-03-23T14:23:19.261Z,24.76
2019-03-23T14:25:51.121Z,24.66
2019-03-23T14:28:23.111Z,24.70
2019-03-23T14:30:55.054Z,24.79
2019-03-23T14:33:27.025Z,25.03
2019-03-23T14:35:59.077Z,25.03
2019-03-23T14:38:31.409Z,25.02
2019-03-23T14:41:03.888Z,25.00
2019-03-23T14:43:36.109Z,24.75
2019-03-23T14:46:08.535Z,24.71
2019-03-23T14:48:41.177Z,24.67
2019-03-23T14:51:13.591Z,24.71
2019-03-23T14:53:45.454Z,24.67
2019-03-23T14:56:17.943Z,24.67
2019-03-23T14:58:50.290Z,24.56
2019-03-23T15:01:22.775Z,24.50
2019-03-23T15:03:55.243Z,24.28
2019-03-23T15:06:27.599Z,24.30
2019-03-23T15:09:00.135Z,24.27
2019-03-23T15:11:32.643Z,24.25
2019-03-23T15:14:08.158Z,24.33
2019-03-23T15:16:42.548Z,24.54
2019-03-23T15:19:15.716Z,24.72
2019-03-23T15:21:48.250Z,24.63
2019-03-23T15:24:20.720Z,24.58
2019-03-23T15:26:52.999Z,24.70
2019-03-23T15:29:25.482Z,24.36
2019-03-23T15:31:57.945Z,24.31
2019-03-23T15:34:30.555Z,24.19
2019-03-23T15:37:03.183Z,24.32
2019-03-23T15:39:37.052Z,24.39
2019-03-23T15:42:09.616Z,24.26
2019-03-23T15:44:41.532Z,24.34
2019-03-23T15:47:13.422Z,24.33
2019-03-23T15:49:45.471Z,24.19
2019-03-23T15:52:17.423Z,24.17
2019-03-23T15:54:49.287Z,24.31
2019-03-23T15:57:21.209Z,24.63
2019-03-23T15:59:53.078Z,24.50
2019-03-23T16:02:25.045Z,24.23
2019-03-23T16:04:56.952Z,24.15
2019-03-23T16:07:29.697Z,24.02
2019-03-23T16:10:01.833Z,24.10
2019-03-23T16:12:35.321Z,24.30
2019-03-23T16:15:10.101Z,24.23
2019-03-23T16:17:43.178Z,24.13
2019-03-23T16:20:15.811Z,24.21
2019-03-23T16:22:47.696Z,24.04
2019-03-23T16:25:20.106Z,23.85
2019-03-23T16:27:51.995Z,23.84
2019-03-23T16:30:35.193Z,23.73
2019-03-23T16:33:07.086Z,23.87
2019-03-23T16:35:39.056Z,23.91
2019-03-23T16:38:10.987Z,23.86
2019-03-23T16:40:43.190Z,23.71
2019-03-23T16:43:15.032Z,23.81
2019-03-23T16:45:47.003Z,23.79
2019-03-23T16:48:18.965Z,23.73
2019-03-23T16:50:50.892Z,23.63
2019-03-23T16:53:22.806Z,23.72
2019-03-23T16:55:54.669Z,23.66
2019-03-23T16:58:26.587Z,23.64
2019-03-23T17:00:58.428Z,23.42
2019-03-23T17:03:30.283Z,23.36
2019-03-23T17:06:02.216Z,23.02
2019-03-23T17:08:34.449Z,22.86
2019-03-23T17:11:07.665Z,22.77
2019-03-23T17:13:39.509Z,22.68
2019-03-23T17:16:11.710Z,22.73
2019-03-23T17:18:43.581Z,22.62
2019-03-23T17:21:15.502Z,22.50
2019-03-23T17:23:47.364Z,22.36
2019-03-23T17:26:19.289Z,22.35
2019-03-23T17:28:51.394Z,22.19
2019-03-23T17:31:23.774Z,22.12
2019-03-23T17:33:55.774Z,22.06
2019-03-23T17:36:27.726Z,21.88
2019-03-23T17:38:59.627Z,21.68
2019-03-23T17:41:31.518Z,21.64
2019-03-23T17:44:04.886Z,21.52
2019-03-23T17:46:36.848Z,21.45
2019-03-23T17:49:08.710Z,21.44
2019-03-23T17:51:40.769Z,21.38
2019-03-23T17:54:12.784Z,21.28
2019-03-23T17:56:44.742Z,21.08
2019-03-23T17:59:16.748Z,21.03
2019-03-23T18:01:49.098Z,20.95
2019-03-23T18:04:21.012Z,20.72
2019-03-23T18:06:52.938Z,20.73
2019-03-23T18:09:25.001Z,20.69
2019-03-23T18:11:57.298Z,20.53
2019-03-23T18:14:29.642Z,20.41
2019-03-23T18:17:02.802Z,20.35
2019-03-23T18:19:35.756Z,20.20
2019-03-23T18:22:07.705Z,20.15
2019-03-23T18:24:39.587Z,20.04
2019-03-23T18:27:11.503Z,19.94
2019-03-23T18:29:44.803Z,19.80
2019-03-23T18:32:16.696Z,19.72
2019-03-23T18:34:48.638Z,19.60
2019-03-23T18:37:20.546Z,19.48
2019-03-23T18:39:52.447Z,19.34
2019-03-23T18:42:24.341Z,19.25
2019-03-23T18:44:56.230Z,19.10
2019-03-23T18:47:28.583Z,19.01
2019-03-23T18:50:00.500Z,18.84
2019-03-23T18:52:32.349Z,18.68
2019-03-23T18:55:04.578Z,18.59
2019-03-23T18:57:36.890Z,18.50
2019-03-23T19:00:09.912Z,18.53
2019-03-23T19:02:42.087Z,18.32
2019-03-23T19:05:14.916Z,18.06
2019-03-23T19:07:46.797Z,18.03
2019-03-23T19:10:18.709Z,17.90
2019-03-23T19:12:50.671Z,17.78
2019-03-23T19:15:22.789Z,17.70
2019-03-23T19:17:55.174Z,17.61
2019-03-23T19:20:27.037Z,17.55
2019-03-23T19:22:58.981Z,17.41
2019-03-23T19:25:31.469Z,17.28
2019-03-23T19:28:03.460Z,17.21
2019-03-23T19:30:35.445Z,17.21
2019-03-23T19:33:07.425Z,17.13
2019-03-23T19:35:39.313Z,17.16
2019-03-23T19:38:12.314Z,17.14
2019-03-23T19:40:44.200Z,17.03
2019-03-23T19:43:16.112Z,17.05
2019-03-23T19:45:48.003Z,16.96
2019-03-23T19:48:19.895Z,16.75
2019-03-23T19:50:51.814Z,16.66
2019-03-23T19:53:23.746Z,16.56
2019-03-23T19:55:55.982Z,16.47
2019-03-23T19:58:28.529Z,16.40
2019-03-23T20:01:00.533Z,16.33
2019-03-23T20:03:32.399Z,16.15
2019-03-23T20:06:04.478Z,16.00
2019-03-23T20:08:36.351Z,15.78
2019-03-23T20:11:08.388Z,15.72
2019-03-23T20:13:40.281Z,15.77
2019-03-23T20:16:12.213Z,15.77
2019-03-23T20:18:44.348Z,15.55
2019-03-23T20:21:16.266Z,15.41
2019-03-23T20:23:48.191Z,15.43
2019-03-23T20:26:20.250Z,15.33
2019-03-23T20:28:52.266Z,15.20
2019-03-23T20:31:24.331Z,15.12
2019-03-23T20:33:56.676Z,15.08
2019-03-23T20:36:28.911Z,15.09
2019-03-23T20:39:02.077Z,14.98
2019-03-23T20:41:35.555Z,14.87
2019-03-23T20:44:09.806Z,14.85
2019-03-23T20:46:41.513Z,14.74
2019-03-23T20:49:13.396Z,14.64
2019-03-23T20:51:46.940Z,14.55
2019-03-23T20:54:20.149Z,14.42
2019-03-23T20:56:52.136Z,14.37
2019-03-23T20:59:24.027Z,14.33
2019-03-23T21:01:55.956Z,14.29
2019-03-23T21:04:27.939Z,14.28
2019-03-23T21:07:00.886Z,14.28
2019-03-23T21:09:32.922Z,14.31
2019-03-23T21:12:04.998Z,14.25
2019-03-23T21:14:37.080Z,13.99
2019-03-23T21:17:09.019Z,13.97
2019-03-23T21:19:40.993Z,13.91
2019-03-23T21:22:13.239Z,13.78
2019-03-23T21:24:45.587Z,13.81
2019-03-23T21:27:17.549Z,13.79
2019-03-23T21:29:49.421Z,13.69
2019-03-23T21:32:21.433Z,13.75
2019-03-23T21:34:53.781Z,13.71
2019-03-23T21:37:25.699Z,13.56
2019-03-23T21:39:58.132Z,13.49
2019-03-23T21:42:30.010Z,13.41
2019-03-23T21:45:01.882Z,13.42
2019-03-23T21:47:35.550Z,13.44
2019-03-23T21:50:08.842Z,13.30
2019-03-23T21:52:41.874Z,13.15
2019-03-23T21:55:15.422Z,13.07
2019-03-23T21:57:48.476Z,13.00
2019-03-23T22:00:39.121Z,12.98
2019-03-23T22:03:11.234Z,13.02
2019-03-23T22:05:43.236Z,12.99
2019-03-23T22:08:15.106Z,12.87
2019-03-23T22:10:47.214Z,12.86
2019-03-23T22:13:19.443Z,12.76
2019-03-23T22:15:51.353Z,12.72
2019-03-23T22:18:23.269Z,12.62
2019-03-23T22:20:55.891Z,12.57
2019-03-23T22:23:28.639Z,12.56
2019-03-23T22:26:00.529Z,12.63
2019-03-23T22:28:32.444Z,12.64
2019-03-23T22:31:04.297Z,12.48
2019-03-23T22:33:36.213Z,12.34
2019-03-23T22:36:09.147Z,12.31
2019-03-23T22:38:41.765Z,12.21
2019-03-23T22:41:14.475Z,12.26
2019-03-23T22:43:46.786Z,12.32
2019-03-23T22:46:18.823Z,12.25
2019-03-23T22:48:51.158Z,12.32
2019-03-23T22:51:23.134Z,12.26
2019-03-23T22:53:55.566Z,12.30
2019-03-23T22:56:27.421Z,12.27
2019-03-23T22:58:59.323Z,12.28
2019-03-23T23:01:31.198Z,12.14
2019-03-23T23:04:06.973Z,11.94
2019-03-23T23:06:38.993Z,11.89
2019-03-23T23:09:11.690Z,11.90
2019-03-23T23:11:43.736Z,11.64
2019-03-23T23:14:17.176Z,11.73
2019-03-23T23:17:07.219Z,11.59
2019-03-23T23:20:08.484Z,11.55
2019-03-23T23:22:43.409Z,11.57
2019-03-23T23:25:15.400Z,11.56
2019-03-23T23:27:47.312Z,11.63
2019-03-23T23:30:19.495Z,11.59
2019-03-23T23:32:51.527Z,11.47
2019-03-23T23:35:23.850Z,11.49
2019-03-23T23:37:55.768Z,11.40
2019-03-23T23:40:27.717Z,11.50
2019-03-23T23:42:59.708Z,11.41
2019-03-23T23:45:31.816Z,11.24
2019-03-23T23:48:04.109Z,11.10
2019-03-23T23:50:36.102Z,11.02
2019-03-23T23:53:08.197Z,10.88
2019-03-23T23:55:40.110Z,10.82
2019-03-23T23:58:12.281Z,10.71
